Bookmark and Share
Track history (hours):
 

Nord Glory

Last reported at 2014-Apr-11 04:16 UTC. Time now 2014-Apr-18 13:14 UTC.
Position N 43°29' E 036°26'.

Length 190 m; draft 6.2 m.

Type: Cargo ship. MMSI: 354206000.

NotesDate/timePositionNaut miles runAvg speedWind from/ knotsBaromVisibWave heightAir tempDewpointWater temp
2014-Apr-11 04:16N 43°29' E 036°26'1012.9
2014-Apr-11 03:32N 43°26' E 036°13'4012.7
2014-Apr-11 00:25N 43°19' E 035°20'48 5.7
2014-Apr-10 16:07N 43°13' E 034°15'234 8.2
2014-Apr-09 11:33N 41°24' E 029°36'1313.4
2014-Apr-09 10:33N 41°18' E 029°19'  
2014-Apr-03 01:20N 39°56' E 025°57'7111.7
2014-Apr-02 19:17N 38°54' E 025°12'912.0
2014-Apr-02 18:33N 38°46' E 025°08'2911.9
2014-Apr-02 16:08N 38°20' E 024°52'3112.0
2014-Apr-02 13:33N 37°51' E 024°37'1212.1
2014-Apr-02 12:33N 37°39' E 024°35'1212.0
2014-Apr-02 11:33N 37°27' E 024°33'1211.8
2014-Apr-02 10:33N 37°17' E 024°26'1212.2
2014-Apr-02 09:33N 37°06' E 024°18'1212.1
2014-Apr-02 08:33N 36°56' E 024°10'1211.7
2014-Apr-02 07:34N 36°47' E 024°01'1211.8
2014-Apr-02 06:33N 36°37' E 023°52'1111.3
2014-Apr-02 05:33N 36°29' E 023°42'1110.7
2014-Apr-02 04:33N 36°21' E 023°34'1211.7
2014-Apr-02 03:29N 36°12' E 023°24'1111.5
2014-Apr-02 02:33N 36°04' E 023°14'  

Dump ship's entire track history

sailing weather and tide predictions

Nord Glory — 3FIA5 — position and weather